Grafton, NH (03240)

8:17 AM EST on December 25, 2014 (GMT -0500)
Eastman - South Cove | Change Station
CLOSE
Current Station
Personal Weather Station
Location: Grantham, NH
Elevation: 1250 ft
Nearby Weather Stations
Active Advisory: Areal Flood Watch Active Notice: Public Information Statement

Elev 1250 ft 43.52 °N, 72.11 °W | Updated 7 seconds ago

Rain
Rain
42.8 °F
Feels Like 43 °F
N
3.0
Wind Variable Wind from NNW
Gusts 3.0 mph

Today
High -- | Low -- °F
--% Chance of Precip.
Yesterday
High -- | Low -- °F
Precip. -- in
7:19 AM 4:16 PM
Waxing Crescent, 16% visible
Pressure 29.47 in
Visibility 10.0 miles
Clouds Overcast 5500 ft
Windchill 43 °F
Dew Point 43 °F
Humidity 99%
Rainfall 0.95 in
Snow Depth Not available.
UV 0.0 out of 12
Pollen .10 out of 12
Air Quality Not available.
Flu Activity Not available.
METAR KLEB 251253Z 22009KT 10SM -RA OVC055 08/04 A2946 RMK AO2 RAB51 SLP980 P0000 T00830044

More Conditions Fewer Conditions

Pressure 29.47 in
Visibility 10.0 miles
Clouds Overcast 5500 ft
Windchill 43 °F
Dew Point 43 °F
Humidity 99%
Rainfall 0.95 in
Snow Depth Not available.
UV 0.0 out of 12
Pollen .10 out of 12
Air Quality Not available.
Flu Activity Not available.
METAR KLEB 251253Z 22009KT 10SM -RA OVC055 08/04 A2946 RMK AO2 RAB51 SLP980 P0000 T00830044

More Conditions Fewer Conditions

10-Day Weather Forecast

Almanac

Astronomy

Dec. 25, 2014 Rise Set
Actual Time
Civil Twilight
Nautical Twilight
Astronomical Twilight
Moon
Length of Visible Light
Length of Day
Tomorrow will be .
, % of the Moon is Illuminated

Today's Extremes

State Highs State Lows

Community

WunderPhotos

Upload Photos

1,780,268 photos uploaded!

WunderBlogs® & News

Nearby

Air Quality

  Air Quality AQ Index Pollutant
Not available.

Snow Depth

Station Depth Elevation

Earthquake Activity

City Distance Mag. Time & Date
Minimum magnitude displayed is 2.5.

Coastal Water Temperatures

Place Temperature

Nearby Weather Stations